»·PEaware :: N714TW KSNA-KTNP

N714TW :: KSNA-KTNP

FLIGHT INFORMATION

Flight Status: Arrived
Operator: Privately registered:
United States
More flights under this callsign
Pilot: Peter S. (23284)
Aircraft: BEECH AIRCRAFT BARON
(BE58)
More flights by this aircraft type
Origin: KSNA John Wayne-Orange Co
United States
Destination: KTNP Twentynine Palms
United States
More flights between these airports :: More routes between these airports
Route: +SLI V64 TRM V514 TNP
File this flight plan on PilotEdge
Remarks:
Altitude:
(Current/Filed)
11,000ft
Speed:
(Current/Filed)
150kts
Departed: 11-Jan-20 08:17 PM
Arrived: 11-Jan-20 09:12 PM
Distance/Time
Traveled:
100nm/0:54
Distance/Time
To Go:
Arrived

Flight Plot

Page will automatically refresh every two minutes.

Flight plan parsing failed; only flown route is shown


Map Options




Map Legend


Flown Route
Filed Route
Departure Airport
Arrival Airport
Navaid (VOR, NDB)
Fix

Horizontal Profiles

Position Reports

Time Latitude Longitude Heading Altitude Ground
Speed
11-Jan-20 19:58 33.676266 -117.870857 206 60ft 0kts
11-Jan-20 19:59 33.676266 -117.870857 206 60ft 0kts
11-Jan-20 20:00 33.676266 -117.870858 206 60ft 0kts
11-Jan-20 20:01 33.676266 -117.870858 206 60ft 0kts
11-Jan-20 20:02 33.676266 -117.870858 206 60ft 0kts
11-Jan-20 20:03 33.676265 -117.870858 206 60ft 0kts
11-Jan-20 20:04 33.676266 -117.870858 205 60ft 0kts
11-Jan-20 20:05 33.676309 -117.870629 118 60ft 0kts
11-Jan-20 20:06 33.676309 -117.870629 118 60ft 0kts
11-Jan-20 20:07 33.676309 -117.870629 118 60ft 0kts
11-Jan-20 20:08 33.676309 -117.870629 118 60ft 0kts
11-Jan-20 20:09 33.676309 -117.870629 118 60ft 0kts
11-Jan-20 20:10 33.676309 -117.870629 118 60ft 0kts
11-Jan-20 20:11 33.676309 -117.870629 118 60ft 0kts
11-Jan-20 20:12 33.676309 -117.870629 118 60ft 0kts
11-Jan-20 20:13 33.676309 -117.870629 118 60ft 0kts
11-Jan-20 20:14 33.676308 -117.870626 118 60ft 0kts
11-Jan-20 20:15 33.681192 -117.866875 73 60ft 20kts
11-Jan-20 20:15 33.681177 -117.866417 118 60ft 0kts
11-Jan-20 20:17 33.661725 -117.879427 223 819ft 120kts
11-Jan-20 20:18 33.634148 -117.905846 221 2571ft 124kts
11-Jan-20 20:18 33.608102 -117.914314 137 3890ft 148kts
11-Jan-20 20:20 33.602813 -117.856192 91 5602ft 152kts
11-Jan-20 20:20 33.605206 -117.814279 75 6552ft 149kts
11-Jan-20 20:21 33.619298 -117.766971 67 7637ft 151kts
11-Jan-20 20:23 33.635974 -117.708499 65 8680ft 162kts
11-Jan-20 20:23 33.648246 -117.664962 62 9454ft 161kts
11-Jan-20 20:24 33.662836 -117.613499 59 10379ft 157kts
11-Jan-20 20:25 33.677541 -117.562239 58 11032ft 168kts
11-Jan-20 20:26 33.693884 -117.504550 60 10992ft 184kts
11-Jan-20 20:27 33.710589 -117.444801 60 10986ft 184kts
11-Jan-20 20:28 33.726617 -117.387166 59 10939ft 174kts
11-Jan-20 20:29 33.727312 -117.326448 84 10983ft 179kts
11-Jan-20 20:30 33.722241 -117.266137 84 10985ft 179kts
11-Jan-20 20:31 33.717349 -117.204969 84 10982ft 179kts
11-Jan-20 20:32 33.712397 -117.143954 84 10982ft 179kts
11-Jan-20 20:33 33.707244 -117.081014 84 10982ft 179kts
11-Jan-20 20:34 33.702130 -117.019073 85 10983ft 180kts
11-Jan-20 20:35 33.697114 -116.958638 86 10984ft 180kts
11-Jan-20 20:36 33.692048 -116.898074 86 11031ft 178kts
11-Jan-20 20:37 33.687018 -116.837877 87 11035ft 181kts
11-Jan-20 20:38 33.681768 -116.775751 87 11018ft 183kts
11-Jan-20 20:39 33.676395 -116.712659 88 11004ft 185kts
11-Jan-20 20:40 33.671034 -116.650037 88 10990ft 186kts
11-Jan-20 20:41 33.665541 -116.586179 88 10978ft 187kts
11-Jan-20 20:42 33.660043 -116.522614 88 10963ft 187kts
11-Jan-20 20:43 33.654468 -116.458539 88 10949ft 187kts
11-Jan-20 20:44 33.648855 -116.394416 88 10935ft 188kts
11-Jan-20 20:45 33.643214 -116.330364 89 10926ft 187kts
11-Jan-20 20:46 33.637465 -116.265452 89 10929ft 186kts
11-Jan-20 20:47 33.631670 -116.200404 89 10930ft 186kts
11-Jan-20 20:48 33.644503 -116.146693 25 10937ft 156kts
11-Jan-20 20:49 33.681623 -116.117124 23 10925ft 156kts
11-Jan-20 20:50 33.718025 -116.088003 24 10929ft 156kts
11-Jan-20 20:51 33.754433 -116.058770 24 10930ft 156kts
11-Jan-20 20:52 33.790801 -116.029537 23 10937ft 156kts
11-Jan-20 20:53 33.828151 -115.999545 25 10455ft 172kts
11-Jan-20 20:54 33.869483 -115.966076 26 9395ft 184kts
11-Jan-20 20:55 33.911408 -115.932189 26 8079ft 180kts
11-Jan-20 20:56 33.951428 -115.899886 25 7274ft 162kts
11-Jan-20 20:57 33.990442 -115.868507 26 7092ft 182kts
11-Jan-20 20:58 34.031327 -115.835128 26 7088ft 174kts
11-Jan-20 20:59 34.071466 -115.802662 26 7091ft 173kts
11-Jan-20 21:00 34.109936 -115.766519 56 6916ft 192kts
11-Jan-20 21:01 34.112027 -115.699357 86 5575ft 197kts
11-Jan-20 21:02 34.079371 -115.673492 222 5000ft 137kts
11-Jan-20 21:03 34.073710 -115.707121 303 5089ft 117kts
11-Jan-20 21:04 34.100400 -115.736655 319 4873ft 129kts
11-Jan-20 21:05 34.112019 -115.773284 282 4375ft 115kts
11-Jan-20 21:06 34.116486 -115.808729 281 3779ft 99kts
11-Jan-20 21:07 34.121339 -115.840827 279 3346ft 97kts
11-Jan-20 21:08 34.125626 -115.871396 285 2844ft 99kts
11-Jan-20 21:09 34.131328 -115.900848 284 2491ft 99kts
11-Jan-20 21:10 34.134425 -115.929864 274 2003ft 80kts
11-Jan-20 21:11 34.134426 -115.947249 304 1891ft 12kts
11-Jan-20 21:12 34.135578 -115.944849 357 1891ft 0kts
11-Jan-20 21:13 34.135578 -115.944849 357 1891ft 0kts
11-Jan-20 21:14 34.135578 -115.944849 357 1891ft 0kts
11-Jan-20 21:15 34.135578 -115.944849 357 1891ft 0kts

Navigation Log

Ident Type
Flight plan parsing failed, navigation log unavailable